createdAt,value
2018-04-26T00:01:48.220Z,988.87
2018-04-26T00:02:48.170Z,988.87
2018-04-26T00:04:44.065Z,988.83
2018-04-26T00:05:44.015Z,988.85
2018-04-26T00:07:37.955Z,988.83
2018-04-26T00:08:37.374Z,988.83
2018-04-26T00:10:33.326Z,988.81
2018-04-26T00:11:33.263Z,988.83
2018-04-26T00:13:29.192Z,988.87
2018-04-26T00:14:29.117Z,988.84
2018-04-26T00:16:25.077Z,988.81
2018-04-26T00:17:24.996Z,988.83
2018-04-26T00:19:18.440Z,988.80
2018-04-26T00:20:18.346Z,988.79
2018-04-26T00:22:14.427Z,988.72
2018-04-26T00:23:14.178Z,988.71
2018-04-26T00:25:10.972Z,988.70
2018-04-26T00:26:10.916Z,988.67
2018-04-26T00:28:07.676Z,988.67
2018-04-26T00:29:07.617Z,988.68
2018-04-26T00:31:03.544Z,988.77
2018-04-26T00:32:03.495Z,988.78
2018-04-26T00:33:59.370Z,988.72
2018-04-26T00:34:59.317Z,988.76
2018-04-26T00:36:53.590Z,988.77
2018-04-26T00:37:53.538Z,988.75
2018-04-26T00:39:49.460Z,988.78
2018-04-26T00:40:49.382Z,988.74
2018-04-26T00:42:45.281Z,988.72
2018-04-26T00:43:45.229Z,988.69
2018-04-26T00:45:41.115Z,988.65
2018-04-26T00:46:41.078Z,988.63
2018-04-26T00:48:34.482Z,988.65
2018-04-26T00:49:34.412Z,988.68
2018-04-26T00:51:27.813Z,988.70
2018-04-26T00:52:27.757Z,988.69
2018-04-26T00:54:23.686Z,988.58
2018-04-26T00:55:23.614Z,988.63
2018-04-26T00:57:17.033Z,988.59
2018-04-26T00:58:16.966Z,988.59
2018-04-26T01:00:10.410Z,988.63
2018-04-26T01:01:10.346Z,988.64
2018-04-26T01:03:03.743Z,988.71
2018-04-26T01:04:03.689Z,988.71
2018-04-26T01:05:59.594Z,988.72
2018-04-26T01:06:59.546Z,988.72
2018-04-26T01:08:52.975Z,988.71
2018-04-26T01:09:52.910Z,988.69
2018-04-26T01:11:48.811Z,988.72
2018-04-26T01:12:48.758Z,988.70
2018-04-26T01:14:44.658Z,988.70
2018-04-26T01:15:44.606Z,988.73
2018-04-26T01:17:41.386Z,988.73
2018-04-26T01:18:41.330Z,988.70
2018-04-26T01:20:34.721Z,988.68
2018-04-26T01:21:34.671Z,988.63
2018-04-26T01:23:28.070Z,988.59
2018-04-26T01:24:28.010Z,988.53
2018-04-26T01:26:21.444Z,988.54
2018-04-26T01:27:21.378Z,988.52
2018-04-26T01:29:17.311Z,988.49
2018-04-26T01:30:17.244Z,988.49
2018-04-26T01:32:10.640Z,988.47
2018-04-26T01:33:10.576Z,988.49
2018-04-26T01:35:04.687Z,988.50
2018-04-26T01:36:03.924Z,988.48
2018-04-26T01:37:59.822Z,988.44
2018-04-26T01:38:59.766Z,988.43
2018-04-26T01:40:55.714Z,988.40
2018-04-26T01:41:55.637Z,988.43
2018-04-26T01:43:49.842Z,988.43
2018-04-26T01:44:49.785Z,988.40
2018-04-26T01:46:46.553Z,988.41
2018-04-26T01:47:46.500Z,988.39
2018-04-26T01:49:39.925Z,988.41
2018-04-26T01:50:39.863Z,988.41
2018-04-26T01:52:35.791Z,988.39
2018-04-26T01:53:35.730Z,988.43
2018-04-26T01:55:29.989Z,988.44
2018-04-26T01:56:29.929Z,988.44
2018-04-26T01:58:23.321Z,988.49
2018-04-26T01:59:23.283Z,988.43
2018-04-26T02:01:19.200Z,988.36
2018-04-26T02:02:19.129Z,988.31
2018-04-26T02:10:41.610Z,988.43
2018-04-26T02:11:41.555Z,988.44
2018-04-26T02:13:37.496Z,988.43
2018-04-26T02:15:55.398Z,988.49
2018-04-26T02:18:46.743Z,988.45
2018-04-26T02:20:51.812Z,988.52
2018-04-26T02:21:22.568Z,988.56
2018-04-26T02:23:18.477Z,988.55
2018-04-26T02:24:18.417Z,988.56
2018-04-26T02:29:50.903Z,988.65
2018-04-26T02:31:29.788Z,988.73
2018-04-26T02:32:20.606Z,988.76
2018-04-26T02:34:15.046Z,988.65
2018-04-26T02:42:49.011Z,988.42
2018-04-26T02:43:48.911Z,988.40
2018-04-26T02:46:08.811Z,988.47
2018-04-26T02:47:44.680Z,988.50
2018-04-26T02:49:57.517Z,988.49
2018-04-26T02:50:57.434Z,988.49
2018-04-26T02:52:54.224Z,988.47
2018-04-26T02:53:54.165Z,988.43
2018-04-26T02:55:50.094Z,988.43
2018-04-26T02:56:50.027Z,988.44
2018-04-26T02:58:45.920Z,988.47
2018-04-26T02:59:45.880Z,988.48
2018-04-26T03:01:39.361Z,988.42
2018-04-26T03:02:39.288Z,988.41
2018-04-26T03:04:35.259Z,988.45
2018-04-26T03:05:35.156Z,988.42
2018-04-26T03:07:31.067Z,988.48
2018-04-26T03:08:31.013Z,988.51
2018-04-26T03:10:27.074Z,988.56
2018-04-26T03:11:27.019Z,988.59
2018-04-26T03:13:22.958Z,988.60
2018-04-26T03:14:22.864Z,988.58
2018-04-26T03:16:16.306Z,988.57
2018-04-26T03:17:16.245Z,988.56
2018-04-26T03:19:09.672Z,988.57
2018-04-26T03:20:09.609Z,988.54
2018-04-26T03:22:05.551Z,988.55
2018-04-26T03:23:05.491Z,988.56
2018-04-26T03:24:58.914Z,988.55
2018-04-26T03:25:58.832Z,988.61
2018-04-26T03:27:52.281Z,988.58
2018-04-26T03:28:52.210Z,988.55
2018-04-26T03:30:45.653Z,988.59
2018-04-26T03:31:45.594Z,988.55
2018-04-26T03:33:39.003Z,988.52
2018-04-26T03:34:38.987Z,988.57
2018-04-26T03:36:32.388Z,988.58
2018-04-26T03:37:32.312Z,988.56
2018-04-26T03:39:28.190Z,988.66
2018-04-26T03:40:28.147Z,988.65
2018-04-26T03:42:24.083Z,988.65
2018-04-26T03:43:23.990Z,988.68
2018-04-26T03:45:19.925Z,988.70
2018-04-26T03:46:19.825Z,988.71
2018-04-26T03:48:16.679Z,988.74
2018-04-26T03:49:16.578Z,988.74
2018-04-26T03:51:10.019Z,988.80
2018-04-26T03:52:09.965Z,988.75
2018-04-26T03:54:05.939Z,988.71
2018-04-26T03:55:05.843Z,988.75
2018-04-26T03:56:59.293Z,988.75
2018-04-26T03:57:59.189Z,988.76
2018-04-26T03:59:52.615Z,988.76
2018-04-26T04:00:52.559Z,988.77
2018-04-26T04:02:45.955Z,988.77
2018-04-26T04:03:45.944Z,988.76
2018-04-26T04:05:39.327Z,988.83
2018-04-26T04:06:39.249Z,988.82
2018-04-26T04:08:32.650Z,988.88
2018-04-26T04:09:32.582Z,988.84
2018-04-26T04:11:26.023Z,988.85
2018-04-26T04:12:25.962Z,988.86
2018-04-26T04:14:19.398Z,988.92
2018-04-26T04:15:19.310Z,988.96
2018-04-26T04:17:12.721Z,988.94
2018-04-26T04:18:12.648Z,988.93
2018-04-26T04:20:08.549Z,988.93
2018-04-26T04:21:08.495Z,988.94
2018-04-26T04:23:04.394Z,988.93
2018-04-26T04:24:04.329Z,988.94
2018-04-26T04:25:57.764Z,988.91
2018-04-26T04:26:57.668Z,988.95
2018-04-26T04:28:53.609Z,988.96
2018-04-26T04:29:53.535Z,989.02
2018-04-26T04:31:49.502Z,989.02
2018-04-26T04:32:49.432Z,989.00
2018-04-26T04:34:45.411Z,989.00
2018-04-26T04:35:45.342Z,989.01
2018-04-26T04:37:41.275Z,989.02
2018-04-26T04:38:41.223Z,989.02
2018-04-26T04:40:37.106Z,989.04
2018-04-26T04:41:37.038Z,989.08
2018-04-26T04:43:33.768Z,989.13
2018-04-26T04:44:33.712Z,989.19
2018-04-26T04:46:30.165Z,989.24
2018-04-26T04:47:29.562Z,989.26
2018-04-26T04:49:25.548Z,989.28
2018-04-26T04:50:25.423Z,989.31
2018-04-26T04:52:18.821Z,989.38
2018-04-26T04:53:18.753Z,989.39
2018-04-26T04:55:14.695Z,989.35
2018-04-26T04:56:14.606Z,989.38
2018-04-26T04:58:08.558Z,989.36
2018-04-26T04:59:07.946Z,989.35
2018-04-26T05:01:01.378Z,989.43
2018-04-26T05:02:01.382Z,989.40
2018-04-26T05:03:54.736Z,989.40
2018-04-26T05:04:54.633Z,989.42
2018-04-26T05:06:48.026Z,989.43
2018-04-26T05:07:47.967Z,989.42
2018-04-26T05:09:41.398Z,989.48
2018-04-26T05:10:41.333Z,989.49
2018-04-26T05:12:34.715Z,989.52
2018-04-26T05:13:34.647Z,989.59
2018-04-26T05:15:28.106Z,989.63
2018-04-26T05:16:28.007Z,989.65
2018-04-26T05:18:21.499Z,989.68
2018-04-26T05:19:21.433Z,989.67
2018-04-26T05:21:14.870Z,989.69
2018-04-26T05:22:14.771Z,989.69
2018-04-26T05:24:08.643Z,989.72
2018-04-26T05:25:08.129Z,989.77
2018-04-26T05:27:04.125Z,989.75
2018-04-26T05:28:03.998Z,989.79
2018-04-26T05:29:57.484Z,989.81
2018-04-26T05:30:57.350Z,989.84
2018-04-26T05:32:53.351Z,989.82
2018-04-26T05:33:53.258Z,989.83
2018-04-26T05:35:49.243Z,989.81
2018-04-26T05:36:49.152Z,989.82
2018-04-26T05:38:42.576Z,989.85
2018-04-26T05:39:42.491Z,989.82
2018-04-26T05:41:38.415Z,989.81
2018-04-26T05:42:38.345Z,989.79
2018-04-26T05:44:34.293Z,989.83
2018-04-26T05:45:34.213Z,989.86
2018-04-26T05:47:27.775Z,989.86
2018-04-26T05:48:27.595Z,989.89
2018-04-26T05:50:21.122Z,989.95
2018-04-26T05:51:21.064Z,989.97
2018-04-26T05:53:16.999Z,989.99
2018-04-26T05:54:16.907Z,989.93
2018-04-26T05:56:10.386Z,989.98
2018-04-26T05:57:10.258Z,990.00
2018-04-26T05:59:06.266Z,990.00
2018-04-26T06:00:06.202Z,990.03
2018-04-26T06:01:59.630Z,990.07
2018-04-26T06:02:59.541Z,989.99
2018-04-26T06:04:55.442Z,990.04
2018-04-26T06:05:55.387Z,990.05
2018-04-26T06:07:51.332Z,989.98
2018-04-26T06:08:51.259Z,990.01
2018-04-26T06:10:44.666Z,990.01
2018-04-26T06:11:44.611Z,989.96
2018-04-26T06:13:40.545Z,990.00
2018-04-26T06:14:40.463Z,990.01
2018-04-26T06:16:33.885Z,990.09
2018-04-26T06:17:33.820Z,990.06
2018-04-26T06:19:29.750Z,990.01
2018-04-26T06:20:29.674Z,990.09
2018-04-26T06:22:26.468Z,990.10
2018-04-26T06:23:26.365Z,990.07
2018-04-26T06:25:22.332Z,990.12
2018-04-26T06:26:22.272Z,990.10
2018-04-26T06:28:15.671Z,990.10
2018-04-26T06:29:15.606Z,990.15
2018-04-26T06:31:11.587Z,990.10
2018-04-26T06:32:11.457Z,990.18
2018-04-26T06:34:04.906Z,990.14
2018-04-26T06:35:04.839Z,990.21
2018-04-26T06:36:58.426Z,990.12
2018-04-26T06:37:58.192Z,990.18
2018-04-26T06:39:54.130Z,990.11
2018-04-26T06:40:54.036Z,990.20
2018-04-26T06:42:49.976Z,990.25
2018-04-26T06:43:49.896Z,990.18
2018-04-26T06:45:45.866Z,990.21
2018-04-26T06:46:45.806Z,990.23
2018-04-26T06:48:40.076Z,990.22
2018-04-26T06:49:40.015Z,990.27
2018-04-26T06:51:34.335Z,990.28
2018-04-26T06:52:34.220Z,990.36
2018-04-26T06:54:40.792Z,990.27
2018-04-26T06:55:40.741Z,990.27
2018-04-26T06:57:36.662Z,990.22
2018-04-26T06:58:36.590Z,990.35
2018-04-26T07:00:30.625Z,990.39
2018-04-26T07:01:29.943Z,990.46
2018-04-26T07:03:23.422Z,990.38
2018-04-26T07:04:23.287Z,990.40
2018-04-26T07:06:16.734Z,990.43
2018-04-26T07:07:16.656Z,990.62
2018-04-26T07:09:10.136Z,990.45
2018-04-26T07:10:10.059Z,990.50
2018-04-26T07:12:06.928Z,990.44
2018-04-26T07:13:06.775Z,990.34
2018-04-26T07:15:02.668Z,990.46
2018-04-26T07:16:02.611Z,990.55
2018-04-26T07:17:56.076Z,990.57
2018-04-26T07:18:55.994Z,990.53
2018-04-26T07:20:50.246Z,990.46
2018-04-26T07:21:50.251Z,990.47
2018-04-26T07:23:46.124Z,990.55
2018-04-26T07:24:46.061Z,990.54
2018-04-26T07:26:42.005Z,990.56
2018-04-26T07:27:41.914Z,990.51
2018-04-26T07:29:37.853Z,990.61
2018-04-26T07:30:37.772Z,990.58
2018-04-26T07:32:31.198Z,990.57
2018-04-26T07:33:31.140Z,990.61
2018-04-26T07:35:27.070Z,990.62
2018-04-26T07:36:26.992Z,990.68
2018-04-26T07:38:20.473Z,990.66
2018-04-26T07:39:20.355Z,990.60
2018-04-26T07:41:13.772Z,990.61
2018-04-26T07:42:13.706Z,990.56
2018-04-26T07:44:09.640Z,990.55
2018-04-26T07:45:09.557Z,990.57
2018-04-26T07:47:02.957Z,990.57
2018-04-26T07:48:02.900Z,990.56
2018-04-26T07:49:56.335Z,990.50
2018-04-26T07:50:56.277Z,990.46
2018-04-26T07:52:52.174Z,990.47
2018-04-26T07:53:52.115Z,990.50
2018-04-26T07:55:48.065Z,990.44
2018-04-26T07:56:47.977Z,990.44
2018-04-26T07:58:41.428Z,990.51
2018-04-26T07:59:41.337Z,990.48
2018-04-26T08:01:37.349Z,990.48
2018-04-26T08:02:37.196Z,990.59
2018-04-26T08:04:30.673Z,990.49
2018-04-26T08:05:30.603Z,990.61
2018-04-26T08:07:26.554Z,990.47
2018-04-26T08:08:26.512Z,990.43
2018-04-26T08:10:22.432Z,990.48
2018-04-26T08:11:22.382Z,990.44
2018-04-26T08:12:22.354Z,990.94
2018-04-26T08:13:22.337Z,990.54
2018-04-26T08:14:22.308Z,990.49
2018-04-26T08:15:22.291Z,990.67
2018-04-26T08:16:22.265Z,990.41
2018-04-26T08:17:22.243Z,990.66
2018-04-26T08:18:22.222Z,990.41
2018-04-26T08:19:22.200Z,990.46
2018-04-26T08:20:22.177Z,990.54
2018-04-26T08:21:22.155Z,990.58
2018-04-26T08:22:22.156Z,990.55
2018-04-26T08:23:22.117Z,990.59
2018-04-26T08:24:22.090Z,990.61
2018-04-26T08:25:22.069Z,990.71
2018-04-26T08:26:22.051Z,990.80
2018-04-26T08:27:22.037Z,990.88
2018-04-26T08:28:22.004Z,990.78
2018-04-26T08:29:21.989Z,990.65
2018-04-26T08:30:21.960Z,990.85
2018-04-26T08:31:21.940Z,991.06
2018-04-26T08:32:21.918Z,990.82
2018-04-26T08:33:21.897Z,990.84
2018-04-26T08:34:21.882Z,990.95
2018-04-26T08:35:21.851Z,990.71
2018-04-26T08:36:21.836Z,990.73
2018-04-26T08:37:21.806Z,990.87
2018-04-26T08:38:21.792Z,990.85
2018-04-26T08:39:21.767Z,990.93
2018-04-26T08:40:49.387Z,990.96
2018-04-26T08:41:21.722Z,990.90
2018-04-26T08:42:21.704Z,990.87
2018-04-26T08:43:21.695Z,990.80
2018-04-26T08:44:21.657Z,990.82
2018-04-26T08:45:21.635Z,990.79
2018-04-26T08:46:21.618Z,991.06
2018-04-26T08:47:21.607Z,990.85
2018-04-26T08:48:21.574Z,990.87
2018-04-26T08:49:21.552Z,990.85
2018-04-26T08:50:21.532Z,990.91
2018-04-26T08:51:21.533Z,990.90
2018-04-26T08:52:21.549Z,990.89
2018-04-26T08:53:21.475Z,990.86
2018-04-26T08:54:21.444Z,990.94
2018-04-26T08:55:21.423Z,991.02
2018-04-26T08:56:21.402Z,990.96
2018-04-26T08:57:21.381Z,990.99
2018-04-26T08:58:21.358Z,991.02
2018-04-26T08:59:21.337Z,991.03
2018-04-26T09:00:21.314Z,991.15
2018-04-26T09:01:21.296Z,991.11
2018-04-26T09:02:21.288Z,991.09
2018-04-26T09:03:21.250Z,991.17
2018-04-26T09:04:21.230Z,991.14
2018-04-26T09:05:21.209Z,991.03
2018-04-26T09:06:21.187Z,991.33
2018-04-26T09:07:21.168Z,991.02
2018-04-26T09:08:21.146Z,991.04
2018-04-26T09:09:21.123Z,991.09
2018-04-26T09:10:21.104Z,990.99
2018-04-26T09:11:21.080Z,991.03
2018-04-26T09:12:21.064Z,991.02
2018-04-26T09:13:21.052Z,991.07
2018-04-26T09:14:21.019Z,991.41
2018-04-26T09:15:20.996Z,991.30
2018-04-26T09:16:20.979Z,991.17
2018-04-26T09:17:20.956Z,991.34
2018-04-26T09:18:20.936Z,991.42
2018-04-26T09:19:20.918Z,991.47
2018-04-26T09:20:20.896Z,991.40
2018-04-26T09:21:20.876Z,991.37
2018-04-26T09:22:20.855Z,991.34
2018-04-26T09:23:20.841Z,991.42
2018-04-26T09:24:20.823Z,991.39
2018-04-26T09:25:20.798Z,991.23
2018-04-26T09:26:20.780Z,991.16
2018-04-26T09:27:20.760Z,991.17
2018-04-26T09:28:20.745Z,991.28
2018-04-26T09:29:20.726Z,991.20
2018-04-26T09:30:20.724Z,991.22
2018-04-26T09:31:20.697Z,991.24
2018-04-26T09:32:20.700Z,991.21
2018-04-26T09:33:20.651Z,991.14
2018-04-26T09:34:20.632Z,991.26
2018-04-26T09:35:20.619Z,991.25
2018-04-26T09:36:20.599Z,991.35
2018-04-26T09:37:20.581Z,991.33
2018-04-26T09:38:20.561Z,991.49
2018-04-26T09:39:20.547Z,991.68
2018-04-26T09:40:20.526Z,991.14
2018-04-26T09:41:20.514Z,991.17
2018-04-26T09:42:20.492Z,991.22
2018-04-26T09:43:20.480Z,991.20
2018-04-26T09:44:20.460Z,991.21
2018-04-26T09:45:20.445Z,991.30
2018-04-26T09:46:20.430Z,991.22
2018-04-26T09:47:20.409Z,991.20
2018-04-26T09:48:20.392Z,991.28
2018-04-26T09:49:20.375Z,991.32
2018-04-26T09:50:20.356Z,991.13
2018-04-26T09:51:20.343Z,991.09
2018-04-26T09:52:20.328Z,991.21
2018-04-26T09:53:20.309Z,991.05
2018-04-26T09:54:20.292Z,991.07
2018-04-26T09:55:20.271Z,991.17
2018-04-26T09:56:20.252Z,991.11
2018-04-26T09:57:20.237Z,991.19
2018-04-26T09:58:20.218Z,991.23
2018-04-26T09:59:20.203Z,991.32
2018-04-26T10:00:20.181Z,991.16
2018-04-26T10:01:20.162Z,991.24
2018-04-26T10:02:20.144Z,991.25
2018-04-26T10:03:20.149Z,991.29
2018-04-26T10:04:20.112Z,991.47
2018-04-26T10:05:20.089Z,991.45
2018-04-26T10:06:20.074Z,991.44
2018-04-26T10:07:20.053Z,991.58
2018-04-26T10:08:20.040Z,991.50
2018-04-26T10:09:20.019Z,991.12
2018-04-26T10:10:19.998Z,991.35
2018-04-26T10:11:19.986Z,991.38
2018-04-26T10:12:19.968Z,991.36
2018-04-26T10:13:19.946Z,991.17
2018-04-26T10:14:19.930Z,991.09
2018-04-26T10:15:19.910Z,991.19
2018-04-26T10:16:19.898Z,991.07
2018-04-26T10:17:19.876Z,991.32
2018-04-26T10:18:19.863Z,991.13
2018-04-26T10:19:19.846Z,991.11
2018-04-26T10:20:19.822Z,991.20
2018-04-26T10:21:19.856Z,991.18
2018-04-26T10:22:19.789Z,991.06
2018-04-26T10:23:19.814Z,991.09
2018-04-26T10:24:19.748Z,991.03
2018-04-26T10:25:19.741Z,991.16
2018-04-26T10:26:19.716Z,991.03
2018-04-26T10:27:19.696Z,991.18
2018-04-26T10:28:19.674Z,991.14
2018-04-26T10:29:19.656Z,991.11
2018-04-26T10:30:19.634Z,991.26
2018-04-26T10:31:19.625Z,991.24
2018-04-26T10:32:19.630Z,991.18
2018-04-26T10:33:19.605Z,991.07
2018-04-26T10:34:19.580Z,991.22
2018-04-26T10:35:19.586Z,991.12
2018-04-26T10:36:19.525Z,991.11
2018-04-26T10:37:19.499Z,991.07
2018-04-26T10:38:19.484Z,991.12
2018-04-26T10:39:19.462Z,991.15
2018-04-26T10:40:19.459Z,991.19
2018-04-26T10:41:19.423Z,991.22
2018-04-26T10:42:19.405Z,991.12
2018-04-26T10:43:19.387Z,991.27
2018-04-26T10:44:19.390Z,991.23
2018-04-26T10:45:19.347Z,991.22
2018-04-26T10:46:19.328Z,991.18
2018-04-26T10:47:19.309Z,991.15
2018-04-26T10:48:19.292Z,991.21
2018-04-26T10:49:19.277Z,991.17
2018-04-26T10:50:19.255Z,991.34
2018-04-26T10:51:19.237Z,991.24
2018-04-26T10:52:19.228Z,991.11
2018-04-26T10:53:19.205Z,991.21
2018-04-26T10:54:19.182Z,991.31
2018-04-26T10:55:19.167Z,991.18
2018-04-26T10:56:19.149Z,991.15
2018-04-26T10:57:19.129Z,991.18
2018-04-26T10:58:19.113Z,991.28
2018-04-26T10:59:19.100Z,991.26
2018-04-26T11:00:19.076Z,991.46
2018-04-26T11:01:19.058Z,991.46
2018-04-26T11:02:19.040Z,991.48
2018-04-26T11:03:19.044Z,991.29
2018-04-26T11:04:19.003Z,991.29
2018-04-26T11:05:18.989Z,991.15
2018-04-26T11:06:18.972Z,991.25
2018-04-26T11:07:18.948Z,991.32
2018-04-26T11:08:18.931Z,991.24
2018-04-26T11:09:19.002Z,991.34
2018-04-26T11:10:18.933Z,991.10
2018-04-26T11:11:18.916Z,991.22
2018-04-26T11:12:18.855Z,991.28
2018-04-26T11:13:18.838Z,991.54
2018-04-26T11:14:18.819Z,991.63
2018-04-26T11:15:18.800Z,991.15
2018-04-26T11:16:18.783Z,991.23
2018-04-26T11:17:18.870Z,991.46
2018-04-26T11:18:18.749Z,991.25
2018-04-26T11:19:18.726Z,991.33
2018-04-26T11:20:18.705Z,991.23
2018-04-26T11:21:18.694Z,991.29
2018-04-26T11:22:18.669Z,991.23
2018-04-26T11:23:18.650Z,991.19
2018-04-26T11:24:18.682Z,991.24
2018-04-26T11:25:18.615Z,991.25
2018-04-26T11:26:18.602Z,991.32
2018-04-26T11:27:18.576Z,991.37
2018-04-26T11:28:18.558Z,991.97
2018-04-26T11:29:18.582Z,992.44
2018-04-26T11:30:18.528Z,991.34
2018-04-26T11:31:18.498Z,991.24
2018-04-26T11:32:18.481Z,991.26
2018-04-26T11:33:18.463Z,991.32
2018-04-26T11:34:18.450Z,991.49
2018-04-26T11:35:18.427Z,991.50
2018-04-26T11:36:18.407Z,991.64
2018-04-26T11:37:18.391Z,991.60
2018-04-26T11:38:18.376Z,991.76
2018-04-26T11:39:18.349Z,991.74
2018-04-26T11:40:18.425Z,991.86
2018-04-26T11:41:24.937Z,991.95
2018-04-26T11:42:18.292Z,992.08
2018-04-26T11:43:18.275Z,992.09
2018-04-26T11:44:18.252Z,992.10
2018-04-26T11:45:18.236Z,992.20
2018-04-26T11:46:18.218Z,992.12
2018-04-26T11:47:18.199Z,992.19
2018-04-26T11:48:18.179Z,992.12
2018-04-26T11:49:18.155Z,992.14
2018-04-26T11:50:18.136Z,992.09
2018-04-26T11:51:18.118Z,992.20
2018-04-26T11:52:18.112Z,992.07
2018-04-26T11:53:18.084Z,992.16
2018-04-26T11:54:18.059Z,992.18
2018-04-26T11:55:18.038Z,992.16
2018-04-26T11:56:18.026Z,992.14
2018-04-26T11:57:18.046Z,992.45
2018-04-26T11:58:17.979Z,992.29
2018-04-26T11:59:17.960Z,992.24
2018-04-26T12:00:17.997Z,992.15
2018-04-26T12:01:18.054Z,992.09
2018-04-26T12:02:17.909Z,992.11
2018-04-26T12:03:17.890Z,992.10
2018-04-26T12:04:17.875Z,992.06
2018-04-26T12:05:17.836Z,992.12
2018-04-26T12:06:17.818Z,992.09
2018-04-26T12:07:17.800Z,992.04
2018-04-26T12:08:17.777Z,992.13
2018-04-26T12:09:17.756Z,992.12
2018-04-26T12:10:17.741Z,992.12
2018-04-26T12:11:17.722Z,992.09
2018-04-26T12:12:17.732Z,992.10
2018-04-26T12:13:17.777Z,992.36
2018-04-26T12:14:17.661Z,992.24
2018-04-26T12:15:17.648Z,992.34
2018-04-26T12:16:17.663Z,992.30
2018-04-26T12:17:17.590Z,992.25
2018-04-26T12:18:17.571Z,992.30
2018-04-26T12:19:17.552Z,992.24
2018-04-26T12:20:17.535Z,992.25
2018-04-26T12:21:17.510Z,992.24
2018-04-26T12:22:17.488Z,992.25
2018-04-26T12:23:17.475Z,992.29
2018-04-26T12:24:17.450Z,992.26
2018-04-26T12:25:17.430Z,992.20
2018-04-26T12:26:17.417Z,992.23
2018-04-26T12:27:17.390Z,992.31
2018-04-26T12:28:17.372Z,992.33
2018-04-26T12:29:17.405Z,992.28
2018-04-26T12:30:17.335Z,992.34
2018-04-26T12:31:17.309Z,992.29
2018-04-26T12:32:17.287Z,992.35
2018-04-26T12:33:17.267Z,992.32
2018-04-26T12:34:17.248Z,992.43
2018-04-26T12:35:17.318Z,992.42
2018-04-26T12:36:17.205Z,992.46
2018-04-26T12:37:17.186Z,992.38
2018-04-26T12:38:17.166Z,992.51
2018-04-26T12:39:17.145Z,992.60
2018-04-26T12:40:17.132Z,992.47
2018-04-26T12:41:17.145Z,992.51
2018-04-26T12:42:17.188Z,992.53
2018-04-26T12:43:17.060Z,992.44
2018-04-26T12:44:17.039Z,992.55
2018-04-26T12:45:17.018Z,992.53
2018-04-26T12:46:17.001Z,992.53
2018-04-26T12:47:16.981Z,992.52
2018-04-26T12:48:16.960Z,992.48
2018-04-26T12:49:16.942Z,992.50
2018-04-26T12:50:16.929Z,992.55
2018-04-26T12:51:16.897Z,992.57
2018-04-26T12:52:16.877Z,992.62
2018-04-26T12:53:16.855Z,992.57
2018-04-26T12:54:16.831Z,992.52
2018-04-26T12:55:16.814Z,992.57
2018-04-26T12:56:16.793Z,992.55
2018-04-26T12:57:16.769Z,992.63
2018-04-26T12:58:16.793Z,992.60
2018-04-26T12:59:16.737Z,992.61
2018-04-26T13:00:16.703Z,992.61
2018-04-26T13:01:16.688Z,992.63
2018-04-26T13:02:16.664Z,992.63
2018-04-26T13:03:16.648Z,992.64
2018-04-26T13:04:16.632Z,992.57
2018-04-26T13:05:16.597Z,992.63
2018-04-26T13:06:16.590Z,992.49
2018-04-26T13:07:16.561Z,992.49
2018-04-26T13:08:16.533Z,992.55
2018-04-26T13:09:16.511Z,992.60
2018-04-26T13:10:16.504Z,992.50
2018-04-26T13:11:16.469Z,992.38
2018-04-26T13:12:16.458Z,992.43
2018-04-26T13:13:16.437Z,992.43
2018-04-26T13:14:16.415Z,992.46
2018-04-26T13:15:16.385Z,992.38
2018-04-26T13:16:16.363Z,992.38
2018-04-26T13:17:16.378Z,992.35
2018-04-26T13:18:16.321Z,992.54
2018-04-26T13:19:16.303Z,992.38
2018-04-26T13:20:16.278Z,992.35
2018-04-26T13:21:16.271Z,992.37
2018-04-26T13:22:16.262Z,992.30
2018-04-26T13:23:16.294Z,992.36
2018-04-26T13:24:16.239Z,992.46
2018-04-26T13:25:16.178Z,992.30
2018-04-26T13:26:16.192Z,992.53
2018-04-26T13:27:16.133Z,992.36
2018-04-26T13:28:16.110Z,992.58
2018-04-26T13:29:16.092Z,992.29
2018-04-26T13:30:16.081Z,992.26
2018-04-26T13:31:16.057Z,992.28
2018-04-26T13:32:16.030Z,992.31
2018-04-26T13:33:16.012Z,992.24
2018-04-26T13:34:15.992Z,992.22
2018-04-26T13:35:15.972Z,992.24
2018-04-26T13:36:16.019Z,992.12
2018-04-26T13:37:15.927Z,992.01
2018-04-26T13:38:15.908Z,992.21
2018-04-26T13:39:15.887Z,992.08
2018-04-26T13:40:15.864Z,992.10
2018-04-26T13:41:15.849Z,991.97
2018-04-26T13:42:15.823Z,992.13
2018-04-26T13:43:15.806Z,991.99
2018-04-26T13:44:15.804Z,991.98
2018-04-26T13:45:15.782Z,992.03
2018-04-26T13:46:15.837Z,992.02
2018-04-26T13:47:15.745Z,991.96
2018-04-26T13:48:15.704Z,991.95
2018-04-26T13:49:15.683Z,991.97
2018-04-26T13:50:15.670Z,992.03
2018-04-26T13:51:15.643Z,991.98
2018-04-26T13:52:15.624Z,991.99
2018-04-26T13:53:15.603Z,991.97
2018-04-26T13:54:15.583Z,991.92
2018-04-26T13:55:15.565Z,991.92
2018-04-26T13:56:15.540Z,991.94
2018-04-26T13:57:15.525Z,992.03
2018-04-26T13:58:15.501Z,991.86
2018-04-26T13:59:15.481Z,991.92
2018-04-26T14:00:15.464Z,992.02
2018-04-26T14:01:15.447Z,992.02
2018-04-26T14:02:15.422Z,992.01
2018-04-26T14:03:15.405Z,991.95
2018-04-26T14:04:15.400Z,991.96
2018-04-26T14:05:15.365Z,991.97
2018-04-26T14:06:15.340Z,991.98
2018-04-26T14:07:15.323Z,991.96
2018-04-26T14:08:15.344Z,991.97
2018-04-26T14:09:15.586Z,991.99
2018-04-26T14:10:15.259Z,991.93
2018-04-26T14:11:15.240Z,992.01
2018-04-26T14:13:49.897Z,991.94
2018-04-26T14:14:49.813Z,991.97
2018-04-26T14:16:43.256Z,991.91
2018-04-26T14:17:43.199Z,991.93
2018-04-26T14:19:39.169Z,991.99
2018-04-26T14:20:39.076Z,991.97
2018-04-26T14:22:32.507Z,991.94
2018-04-26T14:23:32.440Z,991.94
2018-04-26T14:25:25.887Z,991.97
2018-04-26T14:26:25.822Z,991.95
2018-04-26T14:28:19.233Z,992.02
2018-04-26T14:29:19.170Z,991.98
2018-04-26T14:31:15.085Z,991.94
2018-04-26T14:32:15.002Z,991.91
2018-04-26T14:34:08.431Z,991.96
2018-04-26T14:35:08.340Z,991.95
2018-04-26T14:37:01.868Z,992.03
2018-04-26T14:38:01.705Z,992.07
2018-04-26T14:39:57.652Z,992.10
2018-04-26T14:40:57.571Z,992.05
2018-04-26T14:42:51.028Z,992.14
2018-04-26T14:43:50.965Z,992.09
2018-04-26T14:45:46.906Z,992.10
2018-04-26T14:46:46.815Z,992.04
2018-04-26T14:48:42.771Z,991.92
2018-04-26T14:49:42.753Z,992.05
2018-04-26T14:51:38.593Z,992.04
2018-04-26T14:52:38.528Z,991.89
2018-04-26T14:54:31.934Z,992.15
2018-04-26T14:55:31.878Z,992.17
2018-04-26T14:57:27.821Z,992.22
2018-04-26T14:58:27.751Z,992.34
2018-04-26T15:00:23.712Z,992.38
2018-04-26T15:01:23.615Z,992.40
2018-04-26T15:03:19.556Z,992.44
2018-04-26T15:04:19.594Z,992.34
2018-04-26T15:06:15.502Z,992.32
2018-04-26T15:07:15.318Z,992.35
2018-04-26T15:09:08.760Z,992.37
2018-04-26T15:10:08.678Z,992.39
2018-04-26T15:12:02.117Z,992.37
2018-04-26T15:13:02.046Z,992.41
2018-04-26T15:14:57.987Z,992.43
2018-04-26T15:15:57.901Z,992.44
2018-04-26T15:17:53.832Z,992.40
2018-04-26T15:18:53.746Z,992.37
2018-04-26T15:20:47.181Z,992.26
2018-04-26T15:21:47.142Z,992.20
2018-04-26T15:23:40.538Z,992.18
2018-04-26T15:24:40.455Z,992.15
2018-04-26T15:26:33.918Z,992.11
2018-04-26T15:27:33.807Z,992.05
2018-04-26T15:29:29.713Z,992.06
2018-04-26T15:30:29.657Z,992.05
2018-04-26T15:32:23.303Z,992.06
2018-04-26T15:33:23.256Z,992.10
2018-04-26T15:35:16.661Z,992.15
2018-04-26T15:36:16.580Z,992.09
2018-04-26T15:38:12.558Z,992.16
2018-04-26T15:39:12.439Z,992.14
2018-04-26T15:41:08.335Z,992.14
2018-04-26T15:42:08.294Z,992.13
2018-04-26T15:44:04.216Z,992.19
2018-04-26T15:45:04.155Z,992.19
2018-04-26T15:46:57.647Z,992.19
2018-04-26T15:47:57.579Z,992.18